sensor_id;sensor_type;location;lat;lon;timestamp;P1;durP1;ratioP1;P2;durP2;ratioP2
6282;SDS011;3174;53.486;9.568;2023-08-31T00:00:07;4.03;;;2.87;;
6282;SDS011;3174;53.486;9.568;2023-08-31T00:02:37;6.27;;;3.20;;
6282;SDS011;3174;53.486;9.568;2023-08-31T00:05:06;1.97;;;1.77;;
6282;SDS011;3174;53.486;9.568;2023-08-31T00:07:34;3.90;;;2.50;;
6282;SDS011;3174;53.486;9.568;2023-08-31T00:10:02;2.20;;;1.70;;
6282;SDS011;3174;53.486;9.568;2023-08-31T00:12:37;3.57;;;2.47;;
6282;SDS011;3174;53.486;9.568;2023-08-31T00:15:06;4.93;;;3.40;;
6282;SDS011;3174;53.486;9.568;2023-08-31T00:17:35;3.37;;;2.20;;
6282;SDS011;3174;53.486;9.568;2023-08-31T00:20:05;4.87;;;3.20;;
6282;SDS011;3174;53.486;9.568;2023-08-31T00:22:34;4.13;;;2.37;;
6282;SDS011;3174;53.486;9.568;2023-08-31T00:25:02;3.07;;;2.40;;
6282;SDS011;3174;53.486;9.568;2023-08-31T00:27:32;3.60;;;2.30;;
6282;SDS011;3174;53.486;9.568;2023-08-31T00:30:01;3.10;;;2.27;;
6282;SDS011;3174;53.486;9.568;2023-08-31T00:32:29;4.43;;;2.80;;
6282;SDS011;3174;53.486;9.568;2023-08-31T00:34:57;3.00;;;2.17;;
6282;SDS011;3174;53.486;9.568;2023-08-31T00:37:25;3.20;;;2.23;;
6282;SDS011;3174;53.486;9.568;2023-08-31T00:39:53;4.10;;;2.67;;
6282;SDS011;3174;53.486;9.568;2023-08-31T00:42:21;3.80;;;2.23;;
6282;SDS011;3174;53.486;9.568;2023-08-31T00:44:51;1.93;;;1.50;;
6282;SDS011;3174;53.486;9.568;2023-08-31T00:47:20;1.97;;;1.20;;
6282;SDS011;3174;53.486;9.568;2023-08-31T00:49:49;2.27;;;1.43;;
6282;SDS011;3174;53.486;9.568;2023-08-31T00:52:17;3.97;;;2.70;;
6282;SDS011;3174;53.486;9.568;2023-08-31T00:54:46;3.83;;;2.67;;
6282;SDS011;3174;53.486;9.568;2023-08-31T00:57:15;3.77;;;2.10;;
6282;SDS011;3174;53.486;9.568;2023-08-31T00:59:43;2.30;;;1.90;;
6282;SDS011;3174;53.486;9.568;2023-08-31T01:02:15;2.73;;;1.77;;
6282;SDS011;3174;53.486;9.568;2023-08-31T01:04:51;3.23;;;2.20;;
6282;SDS011;3174;53.486;9.568;2023-08-31T01:07:28;2.07;;;1.30;;
6282;SDS011;3174;53.486;9.568;2023-08-31T01:10:04;1.87;;;1.40;;
6282;SDS011;3174;53.486;9.568;2023-08-31T01:12:40;4.53;;;2.70;;
6282;SDS011;3174;53.486;9.568;2023-08-31T01:15:10;4.00;;;2.40;;
6282;SDS011;3174;53.486;9.568;2023-08-31T01:17:39;2.87;;;1.90;;
6282;SDS011;3174;53.486;9.568;2023-08-31T01:20:11;3.67;;;2.50;;
6282;SDS011;3174;53.486;9.568;2023-08-31T01:22:43;3.30;;;1.97;;
6282;SDS011;3174;53.486;9.568;2023-08-31T01:25:17;1.60;;;1.10;;
6282;SDS011;3174;53.486;9.568;2023-08-31T01:27:45;3.60;;;1.40;;
6282;SDS011;3174;53.486;9.568;2023-08-31T01:30:13;3.63;;;2.13;;
6282;SDS011;3174;53.486;9.568;2023-08-31T01:32:43;4.00;;;2.63;;
6282;SDS011;3174;53.486;9.568;2023-08-31T01:35:12;3.20;;;2.07;;
6282;SDS011;3174;53.486;9.568;2023-08-31T01:37:43;2.77;;;2.20;;
6282;SDS011;3174;53.486;9.568;2023-08-31T01:40:18;2.17;;;1.40;;
6282;SDS011;3174;53.486;9.568;2023-08-31T01:42:47;3.10;;;2.00;;
6282;SDS011;3174;53.486;9.568;2023-08-31T01:45:18;2.17;;;1.40;;
6282;SDS011;3174;53.486;9.568;2023-08-31T01:47:47;6.67;;;2.53;;
6282;SDS011;3174;53.486;9.568;2023-08-31T01:50:16;3.03;;;2.67;;
6282;SDS011;3174;53.486;9.568;2023-08-31T01:52:44;2.63;;;1.30;;
6282;SDS011;3174;53.486;9.568;2023-08-31T01:55:12;5.60;;;2.70;;
6282;SDS011;3174;53.486;9.568;2023-08-31T01:57:43;3.83;;;1.90;;
6282;SDS011;3174;53.486;9.568;2023-08-31T02:00:12;6.40;;;2.17;;
6282;SDS011;3174;53.486;9.568;2023-08-31T02:02:40;3.57;;;2.17;;
6282;SDS011;3174;53.486;9.568;2023-08-31T02:05:09;4.47;;;2.50;;
6282;SDS011;3174;53.486;9.568;2023-08-31T02:07:37;3.57;;;2.30;;
6282;SDS011;3174;53.486;9.568;2023-08-31T02:10:06;2.63;;;1.90;;
6282;SDS011;3174;53.486;9.568;2023-08-31T02:12:35;3.00;;;1.63;;
6282;SDS011;3174;53.486;9.568;2023-08-31T02:15:05;2.83;;;1.90;;
6282;SDS011;3174;53.486;9.568;2023-08-31T02:17:34;2.87;;;2.10;;
6282;SDS011;3174;53.486;9.568;2023-08-31T02:20:02;4.23;;;2.23;;
6282;SDS011;3174;53.486;9.568;2023-08-31T02:22:33;2.00;;;1.50;;
6282;SDS011;3174;53.486;9.568;2023-08-31T02:25:01;3.07;;;2.00;;
6282;SDS011;3174;53.486;9.568;2023-08-31T02:27:30;3.70;;;1.90;;
6282;SDS011;3174;53.486;9.568;2023-08-31T02:29:58;4.83;;;1.97;;
6282;SDS011;3174;53.486;9.568;2023-08-31T02:32:28;5.03;;;2.07;;
6282;SDS011;3174;53.486;9.568;2023-08-31T02:34:56;2.30;;;1.50;;
6282;SDS011;3174;53.486;9.568;2023-08-31T02:37:24;4.43;;;2.40;;
6282;SDS011;3174;53.486;9.568;2023-08-31T02:39:52;2.90;;;1.60;;
6282;SDS011;3174;53.486;9.568;2023-08-31T02:42:20;2.50;;;1.40;;
6282;SDS011;3174;53.486;9.568;2023-08-31T02:44:51;4.77;;;2.60;;
6282;SDS011;3174;53.486;9.568;2023-08-31T02:47:19;2.90;;;1.87;;
6282;SDS011;3174;53.486;9.568;2023-08-31T02:49:49;2.90;;;1.37;;
6282;SDS011;3174;53.486;9.568;2023-08-31T02:52:17;1.90;;;1.30;;
6282;SDS011;3174;53.486;9.568;2023-08-31T02:54:45;5.07;;;2.03;;
6282;SDS011;3174;53.486;9.568;2023-08-31T02:57:13;3.33;;;1.93;;
6282;SDS011;3174;53.486;9.568;2023-08-31T02:59:41;2.47;;;1.70;;
6282;SDS011;3174;53.486;9.568;2023-08-31T03:02:09;3.40;;;1.93;;
6282;SDS011;3174;53.486;9.568;2023-08-31T03:04:37;2.83;;;1.90;;
6282;SDS011;3174;53.486;9.568;2023-08-31T03:07:07;3.80;;;1.80;;
6282;SDS011;3174;53.486;9.568;2023-08-31T03:09:35;3.17;;;1.80;;
6282;SDS011;3174;53.486;9.568;2023-08-31T03:12:05;6.03;;;1.83;;
6282;SDS011;3174;53.486;9.568;2023-08-31T03:14:33;2.57;;;1.60;;
6282;SDS011;3174;53.486;9.568;2023-08-31T03:17:01;1.53;;;1.23;;
6282;SDS011;3174;53.486;9.568;2023-08-31T03:19:29;1.80;;;1.30;;
6282;SDS011;3174;53.486;9.568;2023-08-31T03:21:57;5.50;;;1.73;;
6282;SDS011;3174;53.486;9.568;2023-08-31T03:24:26;5.30;;;1.80;;
6282;SDS011;3174;53.486;9.568;2023-08-31T03:26:54;2.40;;;1.30;;
6282;SDS011;3174;53.486;9.568;2023-08-31T03:29:22;1.90;;;0.90;;
6282;SDS011;3174;53.486;9.568;2023-08-31T03:31:50;3.37;;;1.87;;
6282;SDS011;3174;53.486;9.568;2023-08-31T03:34:18;5.77;;;2.37;;
6282;SDS011;3174;53.486;9.568;2023-08-31T03:36:46;2.17;;;1.20;;
6282;SDS011;3174;53.486;9.568;2023-08-31T03:39:14;3.47;;;1.50;;
6282;SDS011;3174;53.486;9.568;2023-08-31T03:41:44;4.17;;;1.50;;
6282;SDS011;3174;53.486;9.568;2023-08-31T03:44:12;3.70;;;1.70;;
6282;SDS011;3174;53.486;9.568;2023-08-31T03:46:40;3.90;;;1.73;;
6282;SDS011;3174;53.486;9.568;2023-08-31T03:49:08;2.80;;;1.33;;
6282;SDS011;3174;53.486;9.568;2023-08-31T03:51:36;2.57;;;1.77;;
6282;SDS011;3174;53.486;9.568;2023-08-31T03:54:04;3.93;;;1.80;;
6282;SDS011;3174;53.486;9.568;2023-08-31T03:56:32;3.67;;;1.87;;
6282;SDS011;3174;53.486;9.568;2023-08-31T03:59:02;1.50;;;1.10;;
6282;SDS011;3174;53.486;9.568;2023-08-31T04:01:31;4.50;;;1.70;;
6282;SDS011;3174;53.486;9.568;2023-08-31T04:03:59;3.40;;;2.20;;
6282;SDS011;3174;53.486;9.568;2023-08-31T04:06:27;3.77;;;2.00;;
6282;SDS011;3174;53.486;9.568;2023-08-31T04:08:56;2.47;;;1.30;;
6282;SDS011;3174;53.486;9.568;2023-08-31T04:11:24;2.30;;;1.70;;
6282;SDS011;3174;53.486;9.568;2023-08-31T04:13:52;3.47;;;1.93;;
6282;SDS011;3174;53.486;9.568;2023-08-31T04:16:22;2.00;;;1.40;;
6282;SDS011;3174;53.486;9.568;2023-08-31T04:18:50;2.70;;;2.00;;
6282;SDS011;3174;53.486;9.568;2023-08-31T04:21:18;4.50;;;3.27;;
6282;SDS011;3174;53.486;9.568;2023-08-31T04:23:46;4.97;;;3.33;;
6282;SDS011;3174;53.486;9.568;2023-08-31T04:26:14;1.67;;;1.33;;
6282;SDS011;3174;53.486;9.568;2023-08-31T04:28:43;4.17;;;2.17;;
6282;SDS011;3174;53.486;9.568;2023-08-31T04:31:12;4.93;;;2.30;;
6282;SDS011;3174;53.486;9.568;2023-08-31T04:33:41;3.60;;;2.07;;
6282;SDS011;3174;53.486;9.568;2023-08-31T04:36:09;5.13;;;2.40;;
6282;SDS011;3174;53.486;9.568;2023-08-31T04:38:37;4.50;;;2.50;;
6282;SDS011;3174;53.486;9.568;2023-08-31T04:41:05;4.53;;;2.40;;
6282;SDS011;3174;53.486;9.568;2023-08-31T04:43:33;2.63;;;1.73;;
6282;SDS011;3174;53.486;9.568;2023-08-31T04:46:01;4.60;;;1.70;;
6282;SDS011;3174;53.486;9.568;2023-08-31T04:48:30;3.30;;;1.50;;
6282;SDS011;3174;53.486;9.568;2023-08-31T04:51:00;4.03;;;2.20;;
6282;SDS011;3174;53.486;9.568;2023-08-31T04:53:30;2.93;;;2.23;;
6282;SDS011;3174;53.486;9.568;2023-08-31T04:55:58;2.00;;;1.70;;
6282;SDS011;3174;53.486;9.568;2023-08-31T04:58:26;5.40;;;2.83;;
6282;SDS011;3174;53.486;9.568;2023-08-31T05:00:54;8.33;;;2.53;;
6282;SDS011;3174;53.486;9.568;2023-08-31T05:03:22;5.63;;;2.20;;
6282;SDS011;3174;53.486;9.568;2023-08-31T05:05:50;5.70;;;2.80;;
6282;SDS011;3174;53.486;9.568;2023-08-31T05:08:19;4.53;;;2.60;;
6282;SDS011;3174;53.486;9.568;2023-08-31T05:10:47;3.37;;;2.10;;
6282;SDS011;3174;53.486;9.568;2023-08-31T05:13:15;4.33;;;1.70;;
6282;SDS011;3174;53.486;9.568;2023-08-31T05:15:43;3.17;;;1.97;;
6282;SDS011;3174;53.486;9.568;2023-08-31T05:18:13;3.40;;;1.50;;
6282;SDS011;3174;53.486;9.568;2023-08-31T05:20:44;1.67;;;1.37;;
6282;SDS011;3174;53.486;9.568;2023-08-31T05:23:12;5.17;;;2.57;;
6282;SDS011;3174;53.486;9.568;2023-08-31T05:25:42;4.27;;;2.87;;
6282;SDS011;3174;53.486;9.568;2023-08-31T05:28:11;5.60;;;2.50;;
6282;SDS011;3174;53.486;9.568;2023-08-31T05:30:46;6.30;;;2.20;;
6282;SDS011;3174;53.486;9.568;2023-08-31T05:33:16;5.23;;;2.97;;
6282;SDS011;3174;53.486;9.568;2023-08-31T05:35:44;2.50;;;1.93;;
6282;SDS011;3174;53.486;9.568;2023-08-31T05:38:12;5.13;;;2.00;;
6282;SDS011;3174;53.486;9.568;2023-08-31T05:40:40;3.73;;;1.90;;
6282;SDS011;3174;53.486;9.568;2023-08-31T05:43:13;4.70;;;3.10;;
6282;SDS011;3174;53.486;9.568;2023-08-31T05:45:41;3.53;;;2.30;;
6282;SDS011;3174;53.486;9.568;2023-08-31T05:48:09;3.00;;;2.00;;
6282;SDS011;3174;53.486;9.568;2023-08-31T05:50:37;5.43;;;3.00;;
6282;SDS011;3174;53.486;9.568;2023-08-31T05:53:05;4.60;;;2.23;;
6282;SDS011;3174;53.486;9.568;2023-08-31T05:55:34;8.90;;;4.07;;
6282;SDS011;3174;53.486;9.568;2023-08-31T05:58:03;4.30;;;2.90;;
6282;SDS011;3174;53.486;9.568;2023-08-31T06:00:32;5.67;;;3.07;;
6282;SDS011;3174;53.486;9.568;2023-08-31T06:03:02;4.43;;;2.40;;
6282;SDS011;3174;53.486;9.568;2023-08-31T06:05:32;7.63;;;3.00;;
6282;SDS011;3174;53.486;9.568;2023-08-31T06:08:00;4.40;;;2.47;;
6282;SDS011;3174;53.486;9.568;2023-08-31T06:10:28;5.57;;;2.20;;
6282;SDS011;3174;53.486;9.568;2023-08-31T06:12:56;7.20;;;3.07;;
6282;SDS011;3174;53.486;9.568;2023-08-31T06:15:24;7.20;;;2.87;;
6282;SDS011;3174;53.486;9.568;2023-08-31T06:17:53;3.17;;;2.37;;
6282;SDS011;3174;53.486;9.568;2023-08-31T06:20:24;4.03;;;2.93;;
6282;SDS011;3174;53.486;9.568;2023-08-31T06:22:51;4.77;;;2.70;;
6282;SDS011;3174;53.486;9.568;2023-08-31T06:25:19;6.10;;;2.60;;
6282;SDS011;3174;53.486;9.568;2023-08-31T06:27:50;6.90;;;2.80;;
6282;SDS011;3174;53.486;9.568;2023-08-31T06:30:18;5.37;;;2.67;;
6282;SDS011;3174;53.486;9.568;2023-08-31T06:32:47;5.43;;;2.30;;
6282;SDS011;3174;53.486;9.568;2023-08-31T06:35:23;9.67;;;3.30;;
6282;SDS011;3174;53.486;9.568;2023-08-31T06:37:51;2.97;;;2.10;;
6282;SDS011;3174;53.486;9.568;2023-08-31T06:40:19;3.83;;;2.50;;
6282;SDS011;3174;53.486;9.568;2023-08-31T06:42:47;3.70;;;1.60;;
6282;SDS011;3174;53.486;9.568;2023-08-31T06:45:15;5.50;;;2.37;;
6282;SDS011;3174;53.486;9.568;2023-08-31T06:47:43;5.23;;;2.20;;
6282;SDS011;3174;53.486;9.568;2023-08-31T06:50:11;4.83;;;2.30;;
6282;SDS011;3174;53.486;9.568;2023-08-31T06:52:40;4.67;;;2.90;;
6282;SDS011;3174;53.486;9.568;2023-08-31T06:55:10;5.03;;;2.50;;
6282;SDS011;3174;53.486;9.568;2023-08-31T06:57:38;4.30;;;2.43;;
6282;SDS011;3174;53.486;9.568;2023-08-31T07:00:06;2.83;;;2.00;;
6282;SDS011;3174;53.486;9.568;2023-08-31T07:02:39;5.13;;;2.40;;
6282;SDS011;3174;53.486;9.568;2023-08-31T07:05:08;4.10;;;1.93;;
6282;SDS011;3174;53.486;9.568;2023-08-31T07:07:38;6.20;;;2.20;;
6282;SDS011;3174;53.486;9.568;2023-08-31T07:10:07;7.60;;;2.77;;
6282;SDS011;3174;53.486;9.568;2023-08-31T07:12:36;3.83;;;2.10;;
6282;SDS011;3174;53.486;9.568;2023-08-31T07:15:04;2.57;;;1.77;;
6282;SDS011;3174;53.486;9.568;2023-08-31T07:17:32;3.43;;;2.43;;
6282;SDS011;3174;53.486;9.568;2023-08-31T07:20:01;3.87;;;2.40;;
6282;SDS011;3174;53.486;9.568;2023-08-31T07:22:32;4.57;;;2.70;;
6282;SDS011;3174;53.486;9.568;2023-08-31T07:25:00;3.10;;;2.40;;
6282;SDS011;3174;53.486;9.568;2023-08-31T07:27:31;3.70;;;2.30;;
6282;SDS011;3174;53.486;9.568;2023-08-31T07:29:59;4.20;;;2.30;;
6282;SDS011;3174;53.486;9.568;2023-08-31T07:32:28;5.23;;;2.03;;
6282;SDS011;3174;53.486;9.568;2023-08-31T07:34:56;5.13;;;2.53;;
6282;SDS011;3174;53.486;9.568;2023-08-31T07:37:24;3.53;;;1.87;;
6282;SDS011;3174;53.486;9.568;2023-08-31T07:39:51;3.73;;;2.20;;
6282;SDS011;3174;53.486;9.568;2023-08-31T07:42:20;4.57;;;2.20;;
6282;SDS011;3174;53.486;9.568;2023-08-31T07:44:49;3.60;;;2.27;;
6282;SDS011;3174;53.486;9.568;2023-08-31T07:47:17;4.83;;;2.67;;
6282;SDS011;3174;53.486;9.568;2023-08-31T07:49:45;3.03;;;1.93;;
6282;SDS011;3174;53.486;9.568;2023-08-31T07:52:13;3.83;;;2.27;;
6282;SDS011;3174;53.486;9.568;2023-08-31T07:54:41;2.37;;;1.97;;
6282;SDS011;3174;53.486;9.568;2023-08-31T07:57:09;6.20;;;2.50;;
6282;SDS011;3174;53.486;9.568;2023-08-31T07:59:37;3.30;;;2.10;;
6282;SDS011;3174;53.486;9.568;2023-08-31T08:02:07;3.67;;;2.20;;
6282;SDS011;3174;53.486;9.568;2023-08-31T08:04:35;3.23;;;1.80;;
6282;SDS011;3174;53.486;9.568;2023-08-31T08:07:03;4.30;;;2.17;;
6282;SDS011;3174;53.486;9.568;2023-08-31T08:09:31;3.57;;;2.20;;
6282;SDS011;3174;53.486;9.568;2023-08-31T08:11:59;5.97;;;2.50;;
6282;SDS011;3174;53.486;9.568;2023-08-31T08:14:28;5.63;;;2.43;;
6282;SDS011;3174;53.486;9.568;2023-08-31T08:16:56;4.43;;;2.33;;
6282;SDS011;3174;53.486;9.568;2023-08-31T08:19:25;4.20;;;2.50;;
6282;SDS011;3174;53.486;9.568;2023-08-31T08:21:53;2.77;;;1.60;;
6282;SDS011;3174;53.486;9.568;2023-08-31T08:24:21;2.80;;;2.00;;
6282;SDS011;3174;53.486;9.568;2023-08-31T08:26:49;3.40;;;2.00;;
6282;SDS011;3174;53.486;9.568;2023-08-31T08:29:17;3.57;;;2.60;;
6282;SDS011;3174;53.486;9.568;2023-08-31T08:31:45;3.93;;;1.90;;
6282;SDS011;3174;53.486;9.568;2023-08-31T08:34:13;4.43;;;2.27;;
6282;SDS011;3174;53.486;9.568;2023-08-31T08:36:42;3.47;;;1.93;;
6282;SDS011;3174;53.486;9.568;2023-08-31T08:39:10;2.87;;;2.00;;
6282;SDS011;3174;53.486;9.568;2023-08-31T08:41:38;5.07;;;2.67;;
6282;SDS011;3174;53.486;9.568;2023-08-31T08:44:07;2.73;;;2.23;;
6282;SDS011;3174;53.486;9.568;2023-08-31T08:46:35;3.07;;;1.77;;
6282;SDS011;3174;53.486;9.568;2023-08-31T08:49:05;2.00;;;1.60;;
6282;SDS011;3174;53.486;9.568;2023-08-31T08:51:34;3.20;;;2.80;;
6282;SDS011;3174;53.486;9.568;2023-08-31T08:54:03;4.03;;;2.13;;
6282;SDS011;3174;53.486;9.568;2023-08-31T08:56:31;3.30;;;1.70;;
6282;SDS011;3174;53.486;9.568;2023-08-31T08:59:01;2.80;;;2.17;;
6282;SDS011;3174;53.486;9.568;2023-08-31T09:01:28;2.73;;;2.20;;
6282;SDS011;3174;53.486;9.568;2023-08-31T09:03:57;2.93;;;2.23;;
6282;SDS011;3174;53.486;9.568;2023-08-31T09:06:25;2.80;;;1.97;;
6282;SDS011;3174;53.486;9.568;2023-08-31T09:08:54;3.93;;;2.10;;
6282;SDS011;3174;53.486;9.568;2023-08-31T09:11:25;3.87;;;2.60;;
6282;SDS011;3174;53.486;9.568;2023-08-31T09:13:53;7.33;;;2.93;;
6282;SDS011;3174;53.486;9.568;2023-08-31T09:16:24;2.20;;;1.93;;
6282;SDS011;3174;53.486;9.568;2023-08-31T09:18:55;4.77;;;3.30;;
6282;SDS011;3174;53.486;9.568;2023-08-31T09:21:34;5.83;;;3.10;;
6282;SDS011;3174;53.486;9.568;2023-08-31T09:24:04;6.73;;;3.63;;
6282;SDS011;3174;53.486;9.568;2023-08-31T09:26:38;4.77;;;2.80;;
6282;SDS011;3174;53.486;9.568;2023-08-31T09:29:07;2.10;;;1.70;;
6282;SDS011;3174;53.486;9.568;2023-08-31T09:31:35;5.10;;;2.43;;
6282;SDS011;3174;53.486;9.568;2023-08-31T09:34:03;5.87;;;3.40;;
6282;SDS011;3174;53.486;9.568;2023-08-31T09:36:31;3.97;;;3.57;;
6282;SDS011;3174;53.486;9.568;2023-08-31T09:38:59;5.50;;;4.13;;
6282;SDS011;3174;53.486;9.568;2023-08-31T09:41:27;4.00;;;3.10;;
6282;SDS011;3174;53.486;9.568;2023-08-31T09:43:57;3.47;;;2.77;;
6282;SDS011;3174;53.486;9.568;2023-08-31T09:46:42;4.53;;;2.80;;
6282;SDS011;3174;53.486;9.568;2023-08-31T09:49:10;2.80;;;2.23;;
6282;SDS011;3174;53.486;9.568;2023-08-31T09:51:41;2.20;;;1.80;;
6282;SDS011;3174;53.486;9.568;2023-08-31T09:54:13;3.53;;;2.00;;
6282;SDS011;3174;53.486;9.568;2023-08-31T09:56:41;2.20;;;1.80;;
6282;SDS011;3174;53.486;9.568;2023-08-31T09:59:13;4.57;;;1.80;;
6282;SDS011;3174;53.486;9.568;2023-08-31T10:01:42;1.77;;;1.53;;
6282;SDS011;3174;53.486;9.568;2023-08-31T10:04:12;2.53;;;1.70;;
6282;SDS011;3174;53.486;9.568;2023-08-31T10:06:41;4.07;;;1.50;;
6282;SDS011;3174;53.486;9.568;2023-08-31T10:09:10;1.63;;;1.50;;
6282;SDS011;3174;53.486;9.568;2023-08-31T10:11:38;2.03;;;1.47;;
6282;SDS011;3174;53.486;9.568;2023-08-31T10:14:06;3.67;;;1.57;;
6282;SDS011;3174;53.486;9.568;2023-08-31T10:16:37;4.30;;;1.37;;
6282;SDS011;3174;53.486;9.568;2023-08-31T10:19:07;3.43;;;1.60;;
6282;SDS011;3174;53.486;9.568;2023-08-31T10:21:35;2.73;;;1.83;;
6282;SDS011;3174;53.486;9.568;2023-08-31T10:24:04;3.57;;;1.67;;
6282;SDS011;3174;53.486;9.568;2023-08-31T10:26:33;3.13;;;1.57;;
6282;SDS011;3174;53.486;9.568;2023-08-31T10:29:01;3.83;;;2.10;;
6282;SDS011;3174;53.486;9.568;2023-08-31T10:31:33;3.83;;;2.23;;
6282;SDS011;3174;53.486;9.568;2023-08-31T10:34:03;3.40;;;1.67;;
6282;SDS011;3174;53.486;9.568;2023-08-31T10:36:37;2.80;;;2.10;;
6282;SDS011;3174;53.486;9.568;2023-08-31T10:39:10;3.13;;;1.80;;
6282;SDS011;3174;53.486;9.568;2023-08-31T10:41:39;5.33;;;2.27;;
6282;SDS011;3174;53.486;9.568;2023-08-31T10:44:18;6.70;;;1.70;;
6282;SDS011;3174;53.486;9.568;2023-08-31T10:46:47;1.73;;;1.50;;
6282;SDS011;3174;53.486;9.568;2023-08-31T10:49:18;2.93;;;1.40;;
6282;SDS011;3174;53.486;9.568;2023-08-31T10:51:47;3.03;;;1.43;;
6282;SDS011;3174;53.486;9.568;2023-08-31T10:54:20;1.80;;;1.53;;
6282;SDS011;3174;53.486;9.568;2023-08-31T10:56:53;1.87;;;1.50;;
6282;SDS011;3174;53.486;9.568;2023-08-31T10:59:23;1.77;;;1.27;;
6282;SDS011;3174;53.486;9.568;2023-08-31T11:01:53;1.70;;;1.30;;
6282;SDS011;3174;53.486;9.568;2023-08-31T11:04:26;2.30;;;1.03;;
6282;SDS011;3174;53.486;9.568;2023-08-31T11:07:13;1.57;;;1.20;;
6282;SDS011;3174;53.486;9.568;2023-08-31T11:09:43;2.13;;;1.10;;
6282;SDS011;3174;53.486;9.568;2023-08-31T11:12:12;2.77;;;1.10;;
6282;SDS011;3174;53.486;9.568;2023-08-31T11:14:41;1.57;;;1.10;;
6282;SDS011;3174;53.486;9.568;2023-08-31T11:17:12;1.30;;;0.93;;
6282;SDS011;3174;53.486;9.568;2023-08-31T11:19:41;1.43;;;1.13;;
6282;SDS011;3174;53.486;9.568;2023-08-31T11:22:12;3.17;;;1.30;;
6282;SDS011;3174;53.486;9.568;2023-08-31T11:24:40;2.40;;;1.13;;
6282;SDS011;3174;53.486;9.568;2023-08-31T11:27:08;1.93;;;1.07;;
6282;SDS011;3174;53.486;9.568;2023-08-31T11:29:37;1.90;;;0.87;;
6282;SDS011;3174;53.486;9.568;2023-08-31T11:32:07;2.13;;;1.10;;
6282;SDS011;3174;53.486;9.568;2023-08-31T11:34:39;1.30;;;1.20;;
6282;SDS011;3174;53.486;9.568;2023-08-31T11:37:09;1.30;;;1.20;;
6282;SDS011;3174;53.486;9.568;2023-08-31T11:39:41;3.83;;;1.40;;
6282;SDS011;3174;53.486;9.568;2023-08-31T11:42:09;3.80;;;1.00;;
6282;SDS011;3174;53.486;9.568;2023-08-31T11:44:37;1.53;;;0.80;;
6282;SDS011;3174;53.486;9.568;2023-08-31T11:47:06;1.53;;;0.73;;
6282;SDS011;3174;53.486;9.568;2023-08-31T11:49:34;2.53;;;1.00;;
6282;SDS011;3174;53.486;9.568;2023-08-31T11:52:05;1.80;;;0.90;;
6282;SDS011;3174;53.486;9.568;2023-08-31T11:54:36;1.90;;;0.63;;
6282;SDS011;3174;53.486;9.568;2023-08-31T11:57:06;1.10;;;0.77;;
6282;SDS011;3174;53.486;9.568;2023-08-31T11:59:36;3.07;;;1.07;;
6282;SDS011;3174;53.486;9.568;2023-08-31T12:02:05;2.70;;;1.03;;
6282;SDS011;3174;53.486;9.568;2023-08-31T12:04:33;1.57;;;0.73;;
6282;SDS011;3174;53.486;9.568;2023-08-31T12:07:12;1.30;;;0.90;;
6282;SDS011;3174;53.486;9.568;2023-08-31T12:09:44;1.57;;;0.43;;
6282;SDS011;3174;53.486;9.568;2023-08-31T12:12:13;0.70;;;0.60;;
6282;SDS011;3174;53.486;9.568;2023-08-31T12:14:42;0.73;;;0.50;;
6282;SDS011;3174;53.486;9.568;2023-08-31T12:17:11;0.33;;;0.30;;
6282;SDS011;3174;53.486;9.568;2023-08-31T12:19:40;0.40;;;0.40;;
6282;SDS011;3174;53.486;9.568;2023-08-31T12:22:08;0.90;;;0.47;;
6282;SDS011;3174;53.486;9.568;2023-08-31T12:24:41;0.80;;;0.47;;
6282;SDS011;3174;53.486;9.568;2023-08-31T12:27:09;0.43;;;0.40;;
6282;SDS011;3174;53.486;9.568;2023-08-31T12:29:38;0.53;;;0.50;;
6282;SDS011;3174;53.486;9.568;2023-08-31T12:32:06;1.50;;;0.63;;
6282;SDS011;3174;53.486;9.568;2023-08-31T12:34:34;0.40;;;0.40;;
6282;SDS011;3174;53.486;9.568;2023-08-31T12:37:05;1.87;;;0.70;;
6282;SDS011;3174;53.486;9.568;2023-08-31T12:39:33;0.60;;;0.47;;
6282;SDS011;3174;53.486;9.568;2023-08-31T12:42:04;0.97;;;0.60;;
6282;SDS011;3174;53.486;9.568;2023-08-31T12:44:48;0.40;;;0.40;;
6282;SDS011;3174;53.486;9.568;2023-08-31T12:47:16;0.70;;;0.40;;
6282;SDS011;3174;53.486;9.568;2023-08-31T12:49:44;0.77;;;0.47;;
6282;SDS011;3174;53.486;9.568;2023-08-31T12:52:12;0.67;;;0.50;;
6282;SDS011;3174;53.486;9.568;2023-08-31T12:54:41;1.13;;;0.60;;
6282;SDS011;3174;53.486;9.568;2023-08-31T12:57:10;0.63;;;0.50;;
6282;SDS011;3174;53.486;9.568;2023-08-31T12:59:40;0.57;;;0.33;;
6282;SDS011;3174;53.486;9.568;2023-08-31T13:02:08;0.43;;;0.43;;
6282;SDS011;3174;53.486;9.568;2023-08-31T13:04:38;0.57;;;0.57;;
6282;SDS011;3174;53.486;9.568;2023-08-31T13:07:07;0.53;;;0.40;;
6282;SDS011;3174;53.486;9.568;2023-08-31T13:09:35;0.63;;;0.50;;
6282;SDS011;3174;53.486;9.568;2023-08-31T13:12:03;0.40;;;0.40;;
6282;SDS011;3174;53.486;9.568;2023-08-31T13:14:33;0.83;;;0.60;;
6282;SDS011;3174;53.486;9.568;2023-08-31T13:17:01;2.53;;;0.90;;
6282;SDS011;3174;53.486;9.568;2023-08-31T13:19:30;1.00;;;0.40;;
6282;SDS011;3174;53.486;9.568;2023-08-31T13:21:58;1.50;;;0.90;;
6282;SDS011;3174;53.486;9.568;2023-08-31T13:24:26;1.40;;;0.80;;
6282;SDS011;3174;53.486;9.568;2023-08-31T13:26:54;2.17;;;0.70;;
6282;SDS011;3174;53.486;9.568;2023-08-31T13:29:22;3.70;;;1.00;;
6282;SDS011;3174;53.486;9.568;2023-08-31T13:31:51;0.70;;;0.70;;
6282;SDS011;3174;53.486;9.568;2023-08-31T13:34:19;1.10;;;0.67;;
6282;SDS011;3174;53.486;9.568;2023-08-31T13:36:47;0.50;;;0.50;;
6282;SDS011;3174;53.486;9.568;2023-08-31T13:39:15;1.53;;;1.43;;
6282;SDS011;3174;53.486;9.568;2023-08-31T13:41:43;1.43;;;0.60;;
6282;SDS011;3174;53.486;9.568;2023-08-31T13:44:12;1.17;;;0.67;;
6282;SDS011;3174;53.486;9.568;2023-08-31T13:46:40;1.03;;;0.60;;
6282;SDS011;3174;53.486;9.568;2023-08-31T13:49:09;1.20;;;0.57;;
6282;SDS011;3174;53.486;9.568;2023-08-31T13:51:37;1.53;;;0.57;;
6282;SDS011;3174;53.486;9.568;2023-08-31T13:54:06;0.73;;;0.57;;
6282;SDS011;3174;53.486;9.568;2023-08-31T13:56:34;1.20;;;0.53;;
6282;SDS011;3174;53.486;9.568;2023-08-31T13:59:02;0.50;;;0.50;;
6282;SDS011;3174;53.486;9.568;2023-08-31T14:01:31;1.30;;;0.50;;
6282;SDS011;3174;53.486;9.568;2023-08-31T14:03:59;0.63;;;0.63;;
6282;SDS011;3174;53.486;9.568;2023-08-31T14:06:28;0.67;;;0.57;;
6282;SDS011;3174;53.486;9.568;2023-08-31T14:08:56;0.83;;;0.50;;
6282;SDS011;3174;53.486;9.568;2023-08-31T14:11:25;1.00;;;0.70;;
6282;SDS011;3174;53.486;9.568;2023-08-31T14:14:01;0.87;;;0.50;;
6282;SDS011;3174;53.486;9.568;2023-08-31T14:16:31;0.87;;;0.60;;
6282;SDS011;3174;53.486;9.568;2023-08-31T14:19:00;1.60;;;1.50;;
6282;SDS011;3174;53.486;9.568;2023-08-31T14:21:29;1.17;;;0.70;;
6282;SDS011;3174;53.486;9.568;2023-08-31T14:23:57;1.00;;;0.60;;
6282;SDS011;3174;53.486;9.568;2023-08-31T14:26:25;0.97;;;0.60;;
6282;SDS011;3174;53.486;9.568;2023-08-31T14:28:53;0.60;;;0.60;;
6282;SDS011;3174;53.486;9.568;2023-08-31T14:31:21;0.50;;;0.50;;
6282;SDS011;3174;53.486;9.568;2023-08-31T14:33:49;0.43;;;0.43;;
6282;SDS011;3174;53.486;9.568;2023-08-31T14:36:18;0.40;;;0.40;;
6282;SDS011;3174;53.486;9.568;2023-08-31T14:38:48;0.93;;;0.43;;
6282;SDS011;3174;53.486;9.568;2023-08-31T14:41:15;0.40;;;0.40;;
6282;SDS011;3174;53.486;9.568;2023-08-31T14:43:43;1.37;;;0.50;;
6282;SDS011;3174;53.486;9.568;2023-08-31T14:46:11;0.90;;;0.50;;
6282;SDS011;3174;53.486;9.568;2023-08-31T14:48:39;1.00;;;0.60;;
6282;SDS011;3174;53.486;9.568;2023-08-31T14:51:07;1.50;;;0.57;;
6282;SDS011;3174;53.486;9.568;2023-08-31T14:53:36;2.40;;;0.70;;
6282;SDS011;3174;53.486;9.568;2023-08-31T14:56:07;0.83;;;0.63;;
6282;SDS011;3174;53.486;9.568;2023-08-31T14:58:35;1.33;;;0.70;;
6282;SDS011;3174;53.486;9.568;2023-08-31T15:01:03;0.87;;;0.60;;
6282;SDS011;3174;53.486;9.568;2023-08-31T15:03:31;0.47;;;0.40;;
6282;SDS011;3174;53.486;9.568;2023-08-31T15:05:59;1.33;;;0.50;;
6282;SDS011;3174;53.486;9.568;2023-08-31T15:08:34;0.63;;;0.60;;
6282;SDS011;3174;53.486;9.568;2023-08-31T15:11:03;0.50;;;0.40;;
6282;SDS011;3174;53.486;9.568;2023-08-31T15:13:32;0.93;;;0.40;;
6282;SDS011;3174;53.486;9.568;2023-08-31T15:16:00;1.23;;;0.70;;
6282;SDS011;3174;53.486;9.568;2023-08-31T15:18:29;1.20;;;0.50;;
6282;SDS011;3174;53.486;9.568;2023-08-31T15:20:57;0.43;;;0.37;;
6282;SDS011;3174;53.486;9.568;2023-08-31T15:23:25;0.60;;;0.60;;
6282;SDS011;3174;53.486;9.568;2023-08-31T15:25:58;0.77;;;0.40;;